sensor_id;sensor_type;location;lat;lon;timestamp;P1;durP1;ratioP1;P2;durP2;ratioP2
19414;SDS011;9843;48.882;12.592;2022-07-29T00:01:42;18.17;;;3.63;;
19414;SDS011;9843;48.882;12.592;2022-07-29T00:04:10;4.40;;;3.30;;
19414;SDS011;9843;48.882;12.592;2022-07-29T00:06:36;7.47;;;3.63;;
19414;SDS011;9843;48.882;12.592;2022-07-29T00:09:03;5.93;;;3.50;;
19414;SDS011;9843;48.882;12.592;2022-07-29T00:11:30;7.60;;;3.53;;
19414;SDS011;9843;48.882;12.592;2022-07-29T00:13:58;3.10;;;2.80;;
19414;SDS011;9843;48.882;12.592;2022-07-29T00:16:25;5.90;;;4.00;;
19414;SDS011;9843;48.882;12.592;2022-07-29T00:18:51;3.50;;;3.20;;
19414;SDS011;9843;48.882;12.592;2022-07-29T00:21:18;4.43;;;3.60;;
19414;SDS011;9843;48.882;12.592;2022-07-29T00:23:45;2.97;;;2.73;;
19414;SDS011;9843;48.882;12.592;2022-07-29T00:26:12;3.73;;;3.00;;
19414;SDS011;9843;48.882;12.592;2022-07-29T00:28:38;4.60;;;3.87;;
19414;SDS011;9843;48.882;12.592;2022-07-29T00:31:06;4.17;;;2.87;;
19414;SDS011;9843;48.882;12.592;2022-07-29T00:33:33;5.30;;;3.30;;
19414;SDS011;9843;48.882;12.592;2022-07-29T00:36:00;8.77;;;3.57;;
19414;SDS011;9843;48.882;12.592;2022-07-29T00:38:26;5.97;;;3.53;;
19414;SDS011;9843;48.882;12.592;2022-07-29T00:40:52;3.23;;;2.90;;
19414;SDS011;9843;48.882;12.592;2022-07-29T00:43:19;6.70;;;4.83;;
19414;SDS011;9843;48.882;12.592;2022-07-29T00:45:46;4.87;;;3.03;;
19414;SDS011;9843;48.882;12.592;2022-07-29T00:48:14;3.97;;;3.53;;
19414;SDS011;9843;48.882;12.592;2022-07-29T00:50:41;6.13;;;4.07;;
19414;SDS011;9843;48.882;12.592;2022-07-29T00:53:07;5.60;;;4.07;;
19414;SDS011;9843;48.882;12.592;2022-07-29T00:55:34;6.83;;;3.93;;
19414;SDS011;9843;48.882;12.592;2022-07-29T00:58:01;8.00;;;4.60;;
19414;SDS011;9843;48.882;12.592;2022-07-29T01:00:28;4.60;;;4.17;;
19414;SDS011;9843;48.882;12.592;2022-07-29T01:02:55;8.57;;;4.20;;
19414;SDS011;9843;48.882;12.592;2022-07-29T01:05:24;4.87;;;3.70;;
19414;SDS011;9843;48.882;12.592;2022-07-29T01:07:53;5.13;;;4.53;;
19414;SDS011;9843;48.882;12.592;2022-07-29T01:10:20;4.10;;;3.70;;
19414;SDS011;9843;48.882;12.592;2022-07-29T01:12:48;6.10;;;3.90;;
19414;SDS011;9843;48.882;12.592;2022-07-29T01:15:17;10.53;;;3.90;;
19414;SDS011;9843;48.882;12.592;2022-07-29T01:17:44;5.27;;;4.20;;
19414;SDS011;9843;48.882;12.592;2022-07-29T01:20:18;3.90;;;3.60;;
19414;SDS011;9843;48.882;12.592;2022-07-29T01:28:54;3.67;;;3.00;;
19414;SDS011;9843;48.882;12.592;2022-07-29T01:31:31;4.87;;;4.03;;
19414;SDS011;9843;48.882;12.592;2022-07-29T01:34:03;5.33;;;4.03;;
19414;SDS011;9843;48.882;12.592;2022-07-29T01:36:35;3.70;;;3.40;;
19414;SDS011;9843;48.882;12.592;2022-07-29T01:39:08;8.80;;;3.87;;
19414;SDS011;9843;48.882;12.592;2022-07-29T01:41:38;3.60;;;3.30;;
19414;SDS011;9843;48.882;12.592;2022-07-29T01:44:14;7.40;;;4.77;;
19414;SDS011;9843;48.882;12.592;2022-07-29T01:46:47;4.03;;;3.70;;
19414;SDS011;9843;48.882;12.592;2022-07-29T01:49:20;5.50;;;4.30;;
19414;SDS011;9843;48.882;12.592;2022-07-29T01:51:50;3.20;;;2.90;;
19414;SDS011;9843;48.882;12.592;2022-07-29T01:54:21;5.63;;;4.33;;
19414;SDS011;9843;48.882;12.592;2022-07-29T01:56:53;5.60;;;3.97;;
19414;SDS011;9843;48.882;12.592;2022-07-29T01:59:23;3.93;;;3.63;;
19414;SDS011;9843;48.882;12.592;2022-07-29T02:01:53;4.93;;;4.53;;
19414;SDS011;9843;48.882;12.592;2022-07-29T02:04:21;4.27;;;3.93;;
19414;SDS011;9843;48.882;12.592;2022-07-29T02:06:49;3.77;;;3.47;;
19414;SDS011;9843;48.882;12.592;2022-07-29T02:09:18;4.17;;;3.57;;
19414;SDS011;9843;48.882;12.592;2022-07-29T02:11:47;3.73;;;3.43;;
19414;SDS011;9843;48.882;12.592;2022-07-29T02:14:18;3.87;;;3.47;;
19414;SDS011;9843;48.882;12.592;2022-07-29T02:16:48;4.73;;;3.20;;
19414;SDS011;9843;48.882;12.592;2022-07-29T02:19:18;4.33;;;2.90;;
19414;SDS011;9843;48.882;12.592;2022-07-29T02:21:47;9.43;;;4.17;;
19414;SDS011;9843;48.882;12.592;2022-07-29T02:24:16;9.23;;;4.30;;
19414;SDS011;9843;48.882;12.592;2022-07-29T02:26:44;4.67;;;4.27;;
19414;SDS011;9843;48.882;12.592;2022-07-29T02:29:13;6.87;;;4.60;;
19414;SDS011;9843;48.882;12.592;2022-07-29T02:31:42;5.20;;;3.87;;
19414;SDS011;9843;48.882;12.592;2022-07-29T02:34:13;5.70;;;4.43;;
19414;SDS011;9843;48.882;12.592;2022-07-29T02:36:41;5.13;;;4.63;;
19414;SDS011;9843;48.882;12.592;2022-07-29T02:39:11;5.43;;;3.90;;
19414;SDS011;9843;48.882;12.592;2022-07-29T02:41:41;6.23;;;4.30;;
19414;SDS011;9843;48.882;12.592;2022-07-29T02:44:10;6.27;;;5.03;;
19414;SDS011;9843;48.882;12.592;2022-07-29T02:46:41;4.63;;;3.90;;
19414;SDS011;9843;48.882;12.592;2022-07-29T02:49:15;5.67;;;4.10;;
19414;SDS011;9843;48.882;12.592;2022-07-29T02:51:49;5.50;;;3.97;;
19414;SDS011;9843;48.882;12.592;2022-07-29T02:54:22;5.27;;;4.70;;
19414;SDS011;9843;48.882;12.592;2022-07-29T02:56:52;6.40;;;4.33;;
19414;SDS011;9843;48.882;12.592;2022-07-29T02:59:22;6.87;;;4.47;;
19414;SDS011;9843;48.882;12.592;2022-07-29T03:01:53;4.57;;;4.17;;
19414;SDS011;9843;48.882;12.592;2022-07-29T03:04:23;4.17;;;3.77;;
19414;SDS011;9843;48.882;12.592;2022-07-29T03:06:53;7.47;;;4.90;;
19414;SDS011;9843;48.882;12.592;2022-07-29T03:09:21;3.87;;;3.57;;
19414;SDS011;9843;48.882;12.592;2022-07-29T03:11:49;4.73;;;3.90;;
19414;SDS011;9843;48.882;12.592;2022-07-29T03:14:16;14.13;;;3.93;;
19414;SDS011;9843;48.882;12.592;2022-07-29T03:16:44;4.03;;;3.47;;
19414;SDS011;9843;48.882;12.592;2022-07-29T03:19:11;5.33;;;4.70;;
19414;SDS011;9843;48.882;12.592;2022-07-29T03:21:40;4.10;;;3.70;;
19414;SDS011;9843;48.882;12.592;2022-07-29T03:24:07;5.97;;;5.37;;
19414;SDS011;9843;48.882;12.592;2022-07-29T03:26:33;8.23;;;4.10;;
19414;SDS011;9843;48.882;12.592;2022-07-29T03:29:00;4.27;;;3.80;;
19414;SDS011;9843;48.882;12.592;2022-07-29T03:31:27;4.43;;;4.00;;
19414;SDS011;9843;48.882;12.592;2022-07-29T03:33:54;4.97;;;4.23;;
19414;SDS011;9843;48.882;12.592;2022-07-29T03:36:20;6.63;;;5.47;;
19414;SDS011;9843;48.882;12.592;2022-07-29T03:38:48;9.33;;;5.80;;
19414;SDS011;9843;48.882;12.592;2022-07-29T03:41:16;5.47;;;5.03;;
19414;SDS011;9843;48.882;12.592;2022-07-29T03:43:44;9.23;;;5.03;;
19414;SDS011;9843;48.882;12.592;2022-07-29T03:46:15;7.00;;;5.37;;
19414;SDS011;9843;48.882;12.592;2022-07-29T03:48:46;6.07;;;5.57;;
19414;SDS011;9843;48.882;12.592;2022-07-29T03:51:16;9.30;;;6.43;;
19414;SDS011;9843;48.882;12.592;2022-07-29T03:53:43;7.00;;;5.63;;
19414;SDS011;9843;48.882;12.592;2022-07-29T03:56:11;8.37;;;7.57;;
19414;SDS011;9843;48.882;12.592;2022-07-29T03:58:43;10.13;;;6.57;;
19414;SDS011;9843;48.882;12.592;2022-07-29T04:01:10;6.20;;;5.47;;
19414;SDS011;9843;48.882;12.592;2022-07-29T04:03:38;9.47;;;5.60;;
19414;SDS011;9843;48.882;12.592;2022-07-29T04:06:06;6.03;;;5.43;;
19414;SDS011;9843;48.882;12.592;2022-07-29T04:08:33;6.10;;;5.03;;
19414;SDS011;9843;48.882;12.592;2022-07-29T04:11:00;6.23;;;5.43;;
19414;SDS011;9843;48.882;12.592;2022-07-29T04:13:28;9.67;;;6.23;;
19414;SDS011;9843;48.882;12.592;2022-07-29T04:15:55;9.43;;;4.80;;
19414;SDS011;9843;48.882;12.592;2022-07-29T04:18:23;6.67;;;5.07;;
19414;SDS011;9843;48.882;12.592;2022-07-29T04:20:50;5.20;;;4.60;;
19414;SDS011;9843;48.882;12.592;2022-07-29T04:23:16;5.80;;;5.07;;
19414;SDS011;9843;48.882;12.592;2022-07-29T04:25:43;8.73;;;5.10;;
19414;SDS011;9843;48.882;12.592;2022-07-29T04:28:10;5.77;;;4.67;;
19414;SDS011;9843;48.882;12.592;2022-07-29T04:30:38;7.47;;;5.10;;
19414;SDS011;9843;48.882;12.592;2022-07-29T04:33:06;6.20;;;5.47;;
19414;SDS011;9843;48.882;12.592;2022-07-29T04:35:34;8.97;;;4.77;;
19414;SDS011;9843;48.882;12.592;2022-07-29T04:38:02;6.90;;;4.93;;
19414;SDS011;9843;48.882;12.592;2022-07-29T04:40:30;4.63;;;4.23;;
19414;SDS011;9843;48.882;12.592;2022-07-29T04:42:58;4.90;;;4.37;;
19414;SDS011;9843;48.882;12.592;2022-07-29T04:45:25;6.27;;;4.43;;
19414;SDS011;9843;48.882;12.592;2022-07-29T04:47:53;5.23;;;4.73;;
19414;SDS011;9843;48.882;12.592;2022-07-29T04:50:20;10.87;;;5.90;;
19414;SDS011;9843;48.882;12.592;2022-07-29T04:52:47;10.70;;;6.77;;
19414;SDS011;9843;48.882;12.592;2022-07-29T04:55:13;9.87;;;6.63;;
19414;SDS011;9843;48.882;12.592;2022-07-29T04:57:40;6.57;;;5.97;;
19414;SDS011;9843;48.882;12.592;2022-07-29T05:00:07;8.73;;;6.53;;
19414;SDS011;9843;48.882;12.592;2022-07-29T05:02:35;12.43;;;7.27;;
19414;SDS011;9843;48.882;12.592;2022-07-29T05:05:03;9.40;;;6.73;;
19414;SDS011;9843;48.882;12.592;2022-07-29T05:07:30;6.37;;;5.70;;
19414;SDS011;9843;48.882;12.592;2022-07-29T05:09:57;11.93;;;6.00;;
19414;SDS011;9843;48.882;12.592;2022-07-29T05:12:24;9.70;;;7.77;;
19414;SDS011;9843;48.882;12.592;2022-07-29T05:14:51;20.80;;;7.30;;
19414;SDS011;9843;48.882;12.592;2022-07-29T05:17:18;10.97;;;6.37;;
19414;SDS011;9843;48.882;12.592;2022-07-29T05:19:45;7.03;;;6.33;;
19414;SDS011;9843;48.882;12.592;2022-07-29T05:22:13;10.97;;;6.77;;
19414;SDS011;9843;48.882;12.592;2022-07-29T05:24:39;11.43;;;6.63;;
19414;SDS011;9843;48.882;12.592;2022-07-29T05:27:06;15.03;;;6.33;;
19414;SDS011;9843;48.882;12.592;2022-07-29T05:29:34;8.10;;;7.37;;
19414;SDS011;9843;48.882;12.592;2022-07-29T05:32:01;11.50;;;7.57;;
19414;SDS011;9843;48.882;12.592;2022-07-29T05:34:28;9.80;;;7.33;;
19414;SDS011;9843;48.882;12.592;2022-07-29T05:36:55;10.13;;;6.80;;
19414;SDS011;9843;48.882;12.592;2022-07-29T05:39:23;11.90;;;6.73;;
19414;SDS011;9843;48.882;12.592;2022-07-29T05:41:50;9.93;;;5.97;;
19414;SDS011;9843;48.882;12.592;2022-07-29T05:44:17;11.37;;;6.07;;
19414;SDS011;9843;48.882;12.592;2022-07-29T05:46:44;6.73;;;5.73;;
19414;SDS011;9843;48.882;12.592;2022-07-29T05:49:10;7.00;;;6.23;;
19414;SDS011;9843;48.882;12.592;2022-07-29T05:51:37;7.70;;;4.83;;
19414;SDS011;9843;48.882;12.592;2022-07-29T05:54:04;18.17;;;8.47;;
19414;SDS011;9843;48.882;12.592;2022-07-29T05:56:32;8.80;;;6.00;;
19414;SDS011;9843;48.882;12.592;2022-07-29T05:58:59;9.07;;;5.50;;
19414;SDS011;9843;48.882;12.592;2022-07-29T06:01:26;11.23;;;6.80;;
19414;SDS011;9843;48.882;12.592;2022-07-29T06:03:52;9.03;;;5.30;;
19414;SDS011;9843;48.882;12.592;2022-07-29T06:06:19;7.40;;;6.30;;
19414;SDS011;9843;48.882;12.592;2022-07-29T06:08:46;6.97;;;6.20;;
19414;SDS011;9843;48.882;12.592;2022-07-29T06:11:13;7.30;;;6.07;;
19414;SDS011;9843;48.882;12.592;2022-07-29T06:13:41;13.43;;;6.70;;
19414;SDS011;9843;48.882;12.592;2022-07-29T06:16:07;12.50;;;6.27;;
19414;SDS011;9843;48.882;12.592;2022-07-29T06:18:34;10.50;;;6.40;;
19414;SDS011;9843;48.882;12.592;2022-07-29T06:21:01;13.00;;;6.87;;
19414;SDS011;9843;48.882;12.592;2022-07-29T06:23:33;10.73;;;5.53;;
19414;SDS011;9843;48.882;12.592;2022-07-29T06:26:00;7.07;;;4.80;;
19414;SDS011;9843;48.882;12.592;2022-07-29T06:28:27;14.63;;;5.97;;
19414;SDS011;9843;48.882;12.592;2022-07-29T06:30:55;10.50;;;6.33;;
19414;SDS011;9843;48.882;12.592;2022-07-29T06:33:22;20.10;;;6.47;;
19414;SDS011;9843;48.882;12.592;2022-07-29T06:35:48;5.93;;;5.37;;
19414;SDS011;9843;48.882;12.592;2022-07-29T06:38:16;6.50;;;5.73;;
19414;SDS011;9843;48.882;12.592;2022-07-29T06:40:42;9.93;;;6.67;;
19414;SDS011;9843;48.882;12.592;2022-07-29T06:43:26;7.57;;;5.13;;
19414;SDS011;9843;48.882;12.592;2022-07-29T06:45:57;9.67;;;6.83;;
19414;SDS011;9843;48.882;12.592;2022-07-29T06:48:26;9.27;;;5.87;;
19414;SDS011;9843;48.882;12.592;2022-07-29T06:50:53;11.50;;;7.70;;
19414;SDS011;9843;48.882;12.592;2022-07-29T06:53:20;7.83;;;6.33;;
19414;SDS011;9843;48.882;12.592;2022-07-29T06:55:47;8.30;;;5.63;;
19414;SDS011;9843;48.882;12.592;2022-07-29T06:58:14;9.90;;;5.37;;
19414;SDS011;9843;48.882;12.592;2022-07-29T07:00:43;9.67;;;6.47;;
19414;SDS011;9843;48.882;12.592;2022-07-29T07:03:11;6.27;;;5.17;;
19414;SDS011;9843;48.882;12.592;2022-07-29T07:05:38;7.00;;;4.47;;
19414;SDS011;9843;48.882;12.592;2022-07-29T07:08:05;7.70;;;4.53;;
19414;SDS011;9843;48.882;12.592;2022-07-29T07:10:33;9.17;;;4.73;;
19414;SDS011;9843;48.882;12.592;2022-07-29T07:13:00;6.50;;;4.90;;
19414;SDS011;9843;48.882;12.592;2022-07-29T07:15:27;7.40;;;3.77;;
19414;SDS011;9843;48.882;12.592;2022-07-29T07:17:54;9.90;;;6.17;;
19414;SDS011;9843;48.882;12.592;2022-07-29T07:20:22;6.57;;;3.50;;
19414;SDS011;9843;48.882;12.592;2022-07-29T07:22:48;5.30;;;4.83;;
19414;SDS011;9843;48.882;12.592;2022-07-29T07:25:15;8.03;;;4.17;;
19414;SDS011;9843;48.882;12.592;2022-07-29T07:27:43;8.23;;;4.07;;
19414;SDS011;9843;48.882;12.592;2022-07-29T07:30:09;6.37;;;4.13;;
19414;SDS011;9843;48.882;12.592;2022-07-29T07:32:36;5.20;;;4.53;;
19414;SDS011;9843;48.882;12.592;2022-07-29T07:35:04;7.57;;;4.87;;
19414;SDS011;9843;48.882;12.592;2022-07-29T07:37:34;8.43;;;4.20;;
19414;SDS011;9843;48.882;12.592;2022-07-29T07:40:01;5.10;;;4.05;;
19414;SDS011;9843;48.882;12.592;2022-07-29T07:42:29;5.72;;;3.83;;
19414;SDS011;9843;48.882;12.592;2022-07-29T07:44:55;5.70;;;4.32;;
19414;SDS011;9843;48.882;12.592;2022-07-29T07:47:22;4.68;;;3.33;;
19414;SDS011;9843;48.882;12.592;2022-07-29T07:49:49;4.18;;;3.60;;
19414;SDS011;9843;48.882;12.592;2022-07-29T07:52:16;9.13;;;4.13;;
19414;SDS011;9843;48.882;12.592;2022-07-29T07:54:45;9.80;;;4.00;;
19414;SDS011;9843;48.882;12.592;2022-07-29T07:57:12;4.90;;;3.65;;
19414;SDS011;9843;48.882;12.592;2022-07-29T07:59:39;7.00;;;3.85;;
19414;SDS011;9843;48.882;12.592;2022-07-29T08:02:06;5.00;;;3.80;;
19414;SDS011;9843;48.882;12.592;2022-07-29T08:04:33;4.85;;;2.92;;
19414;SDS011;9843;48.882;12.592;2022-07-29T08:07:00;4.65;;;3.30;;
19414;SDS011;9843;48.882;12.592;2022-07-29T08:09:28;4.10;;;3.13;;
19414;SDS011;9843;48.882;12.592;2022-07-29T08:11:56;5.43;;;2.67;;
19414;SDS011;9843;48.882;12.592;2022-07-29T08:14:24;10.13;;;3.38;;
19414;SDS011;9843;48.882;12.592;2022-07-29T08:16:50;6.30;;;3.05;;
19414;SDS011;9843;48.882;12.592;2022-07-29T08:19:17;3.47;;;2.65;;
19414;SDS011;9843;48.882;12.592;2022-07-29T08:21:44;5.60;;;3.20;;
19414;SDS011;9843;48.882;12.592;2022-07-29T08:24:11;13.55;;;3.30;;
19414;SDS011;9843;48.882;12.592;2022-07-29T08:26:56;2.80;;;2.05;;
19414;SDS011;9843;48.882;12.592;2022-07-29T08:29:23;5.38;;;1.92;;
19414;SDS011;9843;48.882;12.592;2022-07-29T08:31:50;9.63;;;2.75;;
19414;SDS011;9843;48.882;12.592;2022-07-29T08:34:17;4.07;;;2.10;;
19414;SDS011;9843;48.882;12.592;2022-07-29T08:36:43;7.82;;;3.03;;
19414;SDS011;9843;48.882;12.592;2022-07-29T08:39:10;4.03;;;2.35;;
19414;SDS011;9843;48.882;12.592;2022-07-29T08:41:37;8.38;;;2.92;;
19414;SDS011;9843;48.882;12.592;2022-07-29T08:44:05;5.32;;;1.73;;
19414;SDS011;9843;48.882;12.592;2022-07-29T08:46:32;1.92;;;1.73;;
19414;SDS011;9843;48.882;12.592;2022-07-29T08:48:59;3.10;;;1.90;;
19414;SDS011;9843;48.882;12.592;2022-07-29T08:51:27;3.22;;;1.67;;
19414;SDS011;9843;48.882;12.592;2022-07-29T08:53:55;10.43;;;1.80;;
19414;SDS011;9843;48.882;12.592;2022-07-29T08:56:23;3.70;;;2.28;;
19414;SDS011;9843;48.882;12.592;2022-07-29T08:58:50;4.53;;;1.92;;
19414;SDS011;9843;48.882;12.592;2022-07-29T09:01:22;3.20;;;2.13;;
19414;SDS011;9843;48.882;12.592;2022-07-29T09:03:51;8.95;;;2.55;;
19414;SDS011;9843;48.882;12.592;2022-07-29T09:06:21;1.30;;;1.10;;
19414;SDS011;9843;48.882;12.592;2022-07-29T09:08:51;6.85;;;1.45;;
19414;SDS011;9843;48.882;12.592;2022-07-29T09:11:18;4.35;;;2.55;;
19414;SDS011;9843;48.882;12.592;2022-07-29T09:13:45;1.73;;;1.33;;
19414;SDS011;9843;48.882;12.592;2022-07-29T09:16:12;5.32;;;1.50;;
19414;SDS011;9843;48.882;12.592;2022-07-29T09:18:42;2.45;;;1.67;;
19414;SDS011;9843;48.882;12.592;2022-07-29T09:21:11;5.38;;;1.73;;
19414;SDS011;9843;48.882;12.592;2022-07-29T09:24:00;6.72;;;2.40;;
19414;SDS011;9843;48.882;12.592;2022-07-29T09:26:28;6.03;;;1.65;;
19414;SDS011;9843;48.882;12.592;2022-07-29T09:28:56;3.17;;;2.30;;
19414;SDS011;9843;48.882;12.592;2022-07-29T09:31:27;5.15;;;1.98;;
19414;SDS011;9843;48.882;12.592;2022-07-29T09:34:00;2.20;;;1.70;;
19414;SDS011;9843;48.882;12.592;2022-07-29T09:36:28;2.78;;;1.77;;
19414;SDS011;9843;48.882;12.592;2022-07-29T09:38:58;1.55;;;1.42;;
19414;SDS011;9843;48.882;12.592;2022-07-29T09:41:26;3.78;;;1.50;;
19414;SDS011;9843;48.882;12.592;2022-07-29T09:43:54;3.40;;;2.10;;
19414;SDS011;9843;48.882;12.592;2022-07-29T09:46:21;4.72;;;2.63;;
19414;SDS011;9843;48.882;12.592;2022-07-29T09:49:09;3.42;;;2.08;;
19414;SDS011;9843;48.882;12.592;2022-07-29T09:51:37;3.72;;;1.45;;
19414;SDS011;9843;48.882;12.592;2022-07-29T09:56:47;2.20;;;1.63;;
19414;SDS011;9843;48.882;12.592;2022-07-29T09:59:14;5.45;;;1.20;;
19414;SDS011;9843;48.882;12.592;2022-07-29T10:01:40;3.22;;;1.33;;
19414;SDS011;9843;48.882;12.592;2022-07-29T10:04:09;9.45;;;1.60;;
19414;SDS011;9843;48.882;12.592;2022-07-29T10:06:36;4.70;;;1.67;;
19414;SDS011;9843;48.882;12.592;2022-07-29T10:09:21;3.00;;;1.08;;
19414;SDS011;9843;48.882;12.592;2022-07-29T10:12:02;5.78;;;1.98;;
19414;SDS011;9843;48.882;12.592;2022-07-29T10:14:33;4.78;;;1.35;;
19414;SDS011;9843;48.882;12.592;2022-07-29T10:17:00;1.73;;;1.00;;
19414;SDS011;9843;48.882;12.592;2022-07-29T10:19:29;1.58;;;1.10;;
19414;SDS011;9843;48.882;12.592;2022-07-29T10:21:57;5.82;;;1.98;;
19414;SDS011;9843;48.882;12.592;2022-07-29T10:24:25;4.57;;;1.80;;
19414;SDS011;9843;48.882;12.592;2022-07-29T10:26:52;2.67;;;1.98;;
19414;SDS011;9843;48.882;12.592;2022-07-29T10:29:20;3.95;;;1.35;;
19414;SDS011;9843;48.882;12.592;2022-07-29T10:31:48;1.88;;;1.40;;
19414;SDS011;9843;48.882;12.592;2022-07-29T10:34:23;2.08;;;1.33;;
19414;SDS011;9843;48.882;12.592;2022-07-29T10:37:01;1.05;;;0.95;;
19414;SDS011;9843;48.882;12.592;2022-07-29T10:39:38;6.97;;;1.40;;
19414;SDS011;9843;48.882;12.592;2022-07-29T10:42:17;1.98;;;1.38;;
19414;SDS011;9843;48.882;12.592;2022-07-29T10:44:45;2.05;;;1.27;;
19414;SDS011;9843;48.882;12.592;2022-07-29T10:47:22;7.03;;;1.75;;
19414;SDS011;9843;48.882;12.592;2022-07-29T10:49:57;2.20;;;1.20;;
19414;SDS011;9843;48.882;12.592;2022-07-29T10:52:37;3.28;;;1.65;;
19414;SDS011;9843;48.882;12.592;2022-07-29T10:55:30;2.33;;;1.70;;
19414;SDS011;9843;48.882;12.592;2022-07-29T10:58:11;2.50;;;1.70;;
19414;SDS011;9843;48.882;12.592;2022-07-29T11:00:39;4.93;;;2.38;;
19414;SDS011;9843;48.882;12.592;2022-07-29T11:03:06;2.13;;;1.48;;
19414;SDS011;9843;48.882;12.592;2022-07-29T11:08:20;2.53;;;1.70;;
19414;SDS011;9843;48.882;12.592;2022-07-29T11:10:52;3.67;;;1.92;;
19414;SDS011;9843;48.882;12.592;2022-07-29T11:13:49;4.43;;;1.45;;
19414;SDS011;9843;48.882;12.592;2022-07-29T11:16:17;4.50;;;1.55;;
19414;SDS011;9843;48.882;12.592;2022-07-29T11:21:46;1.48;;;1.10;;
19414;SDS011;9843;48.882;12.592;2022-07-29T11:24:15;3.63;;;1.70;;
19414;SDS011;9843;48.882;12.592;2022-07-29T11:26:43;3.60;;;1.30;;
19414;SDS011;9843;48.882;12.592;2022-07-29T11:29:17;3.42;;;2.15;;
19414;SDS011;9843;48.882;12.592;2022-07-29T11:31:47;2.38;;;1.75;;
19414;SDS011;9843;48.882;12.592;2022-07-29T11:34:19;2.20;;;1.70;;
19414;SDS011;9843;48.882;12.592;2022-07-29T11:39:45;5.35;;;2.20;;
19414;SDS011;9843;48.882;12.592;2022-07-29T11:45:04;4.10;;;1.70;;
19414;SDS011;9843;48.882;12.592;2022-07-29T11:47:34;2.08;;;1.20;;
19414;SDS011;9843;48.882;12.592;2022-07-29T11:50:03;4.88;;;2.42;;
19414;SDS011;9843;48.882;12.592;2022-07-29T11:52:34;2.95;;;1.45;;
19414;SDS011;9843;48.882;12.592;2022-07-29T11:55:08;1.98;;;1.55;;
19414;SDS011;9843;48.882;12.592;2022-07-29T11:57:37;2.20;;;1.20;;
19414;SDS011;9843;48.882;12.592;2022-07-29T12:00:11;2.05;;;1.33;;
19414;SDS011;9843;48.882;12.592;2022-07-29T12:02:46;2.97;;;1.77;;
19414;SDS011;9843;48.882;12.592;2022-07-29T12:05:13;2.67;;;1.15;;
19414;SDS011;9843;48.882;12.592;2022-07-29T12:07:41;3.30;;;1.33;;
19414;SDS011;9843;48.882;12.592;2022-07-29T12:10:08;1.35;;;1.00;;
19414;SDS011;9843;48.882;12.592;2022-07-29T12:12:35;6.65;;;1.35;;
19414;SDS011;9843;48.882;12.592;2022-07-29T12:15:13;13.15;;;1.48;;
19414;SDS011;9843;48.882;12.592;2022-07-29T12:17:42;4.65;;;1.35;;
19414;SDS011;9843;48.882;12.592;2022-07-29T12:20:09;5.57;;;1.17;;
19414;SDS011;9843;48.882;12.592;2022-07-29T12:22:38;2.25;;;1.85;;
19414;SDS011;9843;48.882;12.592;2022-07-29T12:25:08;5.50;;;1.95;;
19414;SDS011;9843;48.882;12.592;2022-07-29T12:27:37;1.35;;;1.00;;
19414;SDS011;9843;48.882;12.592;2022-07-29T12:30:04;2.17;;;1.38;;
19414;SDS011;9843;48.882;12.592;2022-07-29T12:32:33;1.42;;;1.15;;
19414;SDS011;9843;48.882;12.592;2022-07-29T12:35:04;2.60;;;1.27;;
19414;SDS011;9843;48.882;12.592;2022-07-29T12:37:32;3.63;;;1.00;;
19414;SDS011;9843;48.882;12.592;2022-07-29T12:40:00;2.65;;;1.30;;
19414;SDS011;9843;48.882;12.592;2022-07-29T12:42:28;3.72;;;1.13;;
19414;SDS011;9843;48.882;12.592;2022-07-29T12:44:55;4.57;;;1.88;;
19414;SDS011;9843;48.882;12.592;2022-07-29T12:47:22;3.97;;;1.50;;
19414;SDS011;9843;48.882;12.592;2022-07-29T12:50:07;4.07;;;1.83;;
19414;SDS011;9843;48.882;12.592;2022-07-29T12:52:35;2.13;;;1.90;;
19414;SDS011;9843;48.882;12.592;2022-07-29T12:55:02;3.35;;;1.25;;
19414;SDS011;9843;48.882;12.592;2022-07-29T12:57:31;2.40;;;1.67;;
19414;SDS011;9843;48.882;12.592;2022-07-29T13:00:11;2.47;;;1.55;;
19414;SDS011;9843;48.882;12.592;2022-07-29T13:02:39;2.47;;;1.85;;
19414;SDS011;9843;48.882;12.592;2022-07-29T13:05:08;3.58;;;1.40;;
19414;SDS011;9843;48.882;12.592;2022-07-29T13:07:36;2.38;;;1.67;;
19414;SDS011;9843;48.882;12.592;2022-07-29T13:10:10;9.40;;;1.90;;
19414;SDS011;9843;48.882;12.592;2022-07-29T13:15:34;6.25;;;1.45;;
19414;SDS011;9843;48.882;12.592;2022-07-29T13:18:01;3.88;;;1.42;;
19414;SDS011;9843;48.882;12.592;2022-07-29T13:20:29;3.65;;;1.90;;
19414;SDS011;9843;48.882;12.592;2022-07-29T13:22:56;1.23;;;0.95;;
19414;SDS011;9843;48.882;12.592;2022-07-29T13:25:24;8.05;;;1.65;;
19414;SDS011;9843;48.882;12.592;2022-07-29T13:27:52;2.70;;;1.38;;
19414;SDS011;9843;48.882;12.592;2022-07-29T13:30:21;2.38;;;1.33;;
19414;SDS011;9843;48.882;12.592;2022-07-29T13:32:49;4.18;;;1.30;;
19414;SDS011;9843;48.882;12.592;2022-07-29T13:35:16;1.65;;;1.30;;
19414;SDS011;9843;48.882;12.592;2022-07-29T13:37:43;4.25;;;1.40;;
19414;SDS011;9843;48.882;12.592;2022-07-29T13:40:11;1.20;;;1.10;;
19414;SDS011;9843;48.882;12.592;2022-07-29T13:42:38;2.75;;;1.33;;
19414;SDS011;9843;48.882;12.592;2022-07-29T13:45:06;2.78;;;1.30;;
19414;SDS011;9843;48.882;12.592;2022-07-29T13:47:35;5.03;;;1.40;;
19414;SDS011;9843;48.882;12.592;2022-07-29T13:50:03;5.13;;;1.45;;
19414;SDS011;9843;48.882;12.592;2022-07-29T13:52:32;6.05;;;2.20;;
19414;SDS011;9843;48.882;12.592;2022-07-29T13:54:59;1.23;;;0.93;;
19414;SDS011;9843;48.882;12.592;2022-07-29T13:57:26;2.30;;;1.20;;
19414;SDS011;9843;48.882;12.592;2022-07-29T13:59:53;2.78;;;1.42;;
19414;SDS011;9843;48.882;12.592;2022-07-29T14:02:20;2.60;;;1.98;;
19414;SDS011;9843;48.882;12.592;2022-07-29T14:04:48;4.03;;;1.00;;
19414;SDS011;9843;48.882;12.592;2022-07-29T14:07:15;0.82;;;0.70;;
19414;SDS011;9843;48.882;12.592;2022-07-29T14:09:42;1.67;;;1.33;;
19414;SDS011;9843;48.882;12.592;2022-07-29T14:12:09;2.38;;;1.13;;
19414;SDS011;9843;48.882;12.592;2022-07-29T14:14:36;1.13;;;0.90;;
19414;SDS011;9843;48.882;12.592;2022-07-29T14:17:02;2.90;;;0.80;;
19414;SDS011;9843;48.882;12.592;2022-07-29T14:19:31;5.88;;;0.80;;
19414;SDS011;9843;48.882;12.592;2022-07-29T14:22:01;3.75;;;1.00;;
19414;SDS011;9843;48.882;12.592;2022-07-29T14:24:28;1.40;;;0.90;;
19414;SDS011;9843;48.882;12.592;2022-07-29T14:26:56;1.92;;;1.58;;
19414;SDS011;9843;48.882;12.592;2022-07-29T14:29:22;1.15;;;0.75;;
19414;SDS011;9843;48.882;12.592;2022-07-29T14:31:49;1.58;;;1.45;;
19414;SDS011;9843;48.882;12.592;2022-07-29T14:34:16;3.80;;;1.10;;
19414;SDS011;9843;48.882;12.592;2022-07-29T14:36:43;6.32;;;1.15;;
19414;SDS011;9843;48.882;12.592;2022-07-29T14:39:11;6.68;;;1.20;;
19414;SDS011;9843;48.882;12.592;2022-07-29T14:41:37;5.93;;;1.50;;
19414;SDS011;9843;48.882;12.592;2022-07-29T14:44:04;1.63;;;1.17;;
19414;SDS011;9843;48.882;12.592;2022-07-29T14:46:31;1.55;;;1.20;;
19414;SDS011;9843;48.882;12.592;2022-07-29T14:48:58;1.35;;;0.70;;
19414;SDS011;9843;48.882;12.592;2022-07-29T14:51:24;1.77;;;0.93;;
19414;SDS011;9843;48.882;12.592;2022-07-29T14:53:52;4.25;;;1.58;;
19414;SDS011;9843;48.882;12.592;2022-07-29T14:56:20;2.33;;;0.80;;
19414;SDS011;9843;48.882;12.592;2022-07-29T14:58:46;3.13;;;1.27;;
19414;SDS011;9843;48.882;12.592;2022-07-29T15:01:13;2.25;;;1.00;;
19414;SDS011;9843;48.882;12.592;2022-07-29T15:03:40;1.90;;;0.98;;
19414;SDS011;9843;48.882;12.592;2022-07-29T15:06:07;1.02;;;0.82;;
19414;SDS011;9843;48.882;12.592;2022-07-29T15:08:33;2.00;;;1.63;;
19414;SDS011;9843;48.882;12.592;2022-07-29T15:11:00;2.75;;;1.58;;
19414;SDS011;9843;48.882;12.592;2022-07-29T15:13:28;3.10;;;1.05;;
19414;SDS011;9843;48.882;12.592;2022-07-29T15:15:55;1.95;;;1.23;;
19414;SDS011;9843;48.882;12.592;2022-07-29T15:18:22;2.50;;;1.10;;